Time;durP1;ratioP1;P1;durP2;ratioP2;P2;SDS_P1;SDS_P2;PMS_P1;PMS_P2;Temp;Humidity;BMP_temperature;BMP_pressure;BME280_temperature;BME280_humidity;BME280_pressure;Samples;Min_cycle;Max_cycle;Signal;HPM_P1;HPM_P2
2023/05/01 00:02:01;;;;;;;15.83;6.30;;;;;;;;;;5030422;28;20025;-67
2023/05/01 00:04:27;;;;;;;16.77;6.23;;;;;;;;;;5032869;28;20077;-67
2023/05/01 00:06:53;;;;;;;10.80;5.60;;;;;;;;;;5033249;28;20050;-67
2023/05/01 00:09:18;;;;;;;11.70;5.53;;;;;;;;;;5033251;28;20047;-66
2023/05/01 00:11:45;;;;;;;12.43;6.00;;;;;;;;;;5033049;28;20017;-67
2023/05/01 00:14:10;;;;;;;14.13;6.53;;;;;;;;;;5033163;28;20018;-66
2023/05/01 00:16:36;;;;;;;12.13;6.23;;;;;;;;;;5032805;28;20117;-67
2023/05/01 00:19:02;;;;;;;11.80;6.07;;;;;;;;;;5032611;28;20024;-67
2023/05/01 00:21:27;;;;;;;11.83;5.80;;;;;;;;;;5030652;28;20024;-67
2023/05/01 00:23:53;;;;;;;11.73;5.70;;;;;;;;;;5033243;28;20381;-67
2023/05/01 00:26:18;;;;;;;11.97;6.30;;;;;;;;;;5032699;28;20013;-67
2023/05/01 00:28:43;;;;;;;12.40;6.20;;;;;;;;;;5033019;28;20068;-67
2023/05/01 00:31:09;;;;;;;14.37;6.83;;;;;;;;;;5032228;28;20373;-66
2023/05/01 00:33:34;;;;;;;12.03;6.37;;;;;;;;;;5032688;28;20032;-67
2023/05/01 00:35:59;;;;;;;16.47;6.70;;;;;;;;;;5031953;28;20017;-67
2023/05/01 00:38:25;;;;;;;14.07;6.50;;;;;;;;;;5033111;28;20021;-67
2023/05/01 00:40:50;;;;;;;16.27;7.00;;;;;;;;;;5032723;28;20088;-67
2023/05/01 00:43:15;;;;;;;16.73;6.50;;;;;;;;;;5032605;28;20096;-68
2023/05/01 00:45:43;;;;;;;14.53;6.70;;;;;;;;;;5031941;28;20109;-67
2023/05/01 00:48:08;;;;;;;14.30;6.40;;;;;;;;;;5032547;28;20021;-67
2023/05/01 00:50:33;;;;;;;19.73;7.10;;;;;;;;;;5032176;28;20100;-67
2023/05/01 00:53:01;;;;;;;14.47;6.20;;;;;;;;;;5031710;28;20017;-66
2023/05/01 00:55:27;;;;;;;14.37;6.60;;;;;;;;;;5031909;28;20029;-66
2023/05/01 00:57:53;;;;;;;14.83;6.40;;;;;;;;;;5031263;28;20096;-66
2023/05/01 01:03:21;;;;;;;13.97;6.10;;;;;;;;;;5082437;22;20046;-63
2023/05/01 01:05:58;;;;;;;12.73;6.17;;;;;;;;;;5090006;28;20474;-63
2023/05/01 01:08:38;;;;;;;13.43;6.50;;;;;;;;;;5091688;28;20024;-63
2023/05/01 01:11:20;;;;;;;13.47;6.40;;;;;;;;;;5090797;28;20020;-63
2023/05/01 01:13:50;;;;;;;13.20;6.70;;;;;;;;;;5091975;28;20035;-63
2023/05/01 01:16:20;;;;;;;18.80;7.27;;;;;;;;;;5089915;28;20024;-63
2023/05/01 01:18:55;;;;;;;12.23;6.53;;;;;;;;;;5090597;28;20103;-64
2023/05/01 01:21:30;;;;;;;12.83;6.57;;;;;;;;;;5089231;28;20497;-64
2023/05/01 01:24:17;;;;;;;14.07;5.60;;;;;;;;;;5088696;28;20471;-65
2023/05/01 01:26:51;;;;;;;14.43;6.10;;;;;;;;;;5090954;28;20499;-64
2023/05/01 01:29:40;;;;;;;12.27;6.67;;;;;;;;;;5091847;28;20370;-64
2023/05/01 01:32:19;;;;;;;12.40;6.30;;;;;;;;;;5050012;28;20549;-65
2023/05/01 01:34:52;;;;;;;14.27;6.50;;;;;;;;;;5088919;28;20024;-64
2023/05/01 01:37:28;;;;;;;13.70;6.03;;;;;;;;;;5091610;28;20028;-64
2023/05/01 01:39:56;;;;;;;12.37;6.30;;;;;;;;;;5089733;28;20513;-64
2023/05/01 01:42:25;;;;;;;11.10;6.33;;;;;;;;;;5091586;28;20353;-64
2023/05/01 01:44:53;;;;;;;13.87;5.97;;;;;;;;;;5091869;28;20379;-64
2023/05/01 01:47:19;;;;;;;12.30;6.30;;;;;;;;;;5091408;28;20028;-64
2023/05/01 01:49:47;;;;;;;15.27;6.27;;;;;;;;;;5090779;28;20031;-65
2023/05/01 01:52:14;;;;;;;12.87;5.90;;;;;;;;;;5091592;28;20099;-65
2023/05/01 01:54:51;;;;;;;13.37;5.70;;;;;;;;;;5089633;28;20417;-64
2023/05/01 01:57:18;;;;;;;10.43;5.20;;;;;;;;;;5091271;28;20467;-64
2023/05/01 01:59:45;;;;;;;12.03;6.07;;;;;;;;;;5088573;28;20028;-65
2023/05/01 02:02:10;;;;;;;11.40;5.57;;;;;;;;;;5082008;28;20043;-65
2023/05/01 02:04:37;;;;;;;10.67;6.00;;;;;;;;;;5069916;28;20115;-64
2023/05/01 02:07:03;;;;;;;12.77;5.77;;;;;;;;;;5071113;28;20020;-64
2023/05/01 02:09:29;;;;;;;12.37;5.77;;;;;;;;;;5070246;28;20016;-65
2023/05/01 02:11:55;;;;;;;10.57;5.10;;;;;;;;;;5071160;28;20017;-64
2023/05/01 02:14:21;;;;;;;11.00;5.30;;;;;;;;;;5071431;28;20036;-64
2023/05/01 02:16:47;;;;;;;10.77;5.53;;;;;;;;;;5073731;28;20084;-64
2023/05/01 02:19:14;;;;;;;12.40;5.60;;;;;;;;;;5074403;28;20095;-64
2023/05/01 02:21:40;;;;;;;15.20;5.70;;;;;;;;;;5074311;28;20029;-64
2023/05/01 02:24:06;;;;;;;13.80;6.20;;;;;;;;;;5074436;28;20009;-64
2023/05/01 02:26:35;;;;;;;12.53;5.87;;;;;;;;;;5074696;28;20460;-64
2023/05/01 02:29:00;;;;;;;13.10;5.80;;;;;;;;;;5074282;28;20009;-64
2023/05/01 02:31:26;;;;;;;10.60;6.13;;;;;;;;;;5074006;28;20021;-64
2023/05/01 02:33:52;;;;;;;13.40;5.57;;;;;;;;;;5073575;28;20016;-64
2023/05/01 02:36:17;;;;;;;11.13;5.87;;;;;;;;;;5073477;28;20055;-64
2023/05/01 02:38:42;;;;;;;13.77;6.03;;;;;;;;;;5071479;28;20074;-64
2023/05/01 02:41:08;;;;;;;10.57;5.40;;;;;;;;;;5074373;28;20039;-64
2023/05/01 02:43:34;;;;;;;10.77;5.63;;;;;;;;;;5074382;28;20491;-64
2023/05/01 02:46:00;;;;;;;12.40;6.07;;;;;;;;;;5074059;28;20020;-65
2023/05/01 02:48:26;;;;;;;16.93;6.10;;;;;;;;;;5074241;28;20029;-64
2023/05/01 02:50:52;;;;;;;17.13;6.20;;;;;;;;;;5072554;28;20070;-64
2023/05/01 02:53:18;;;;;;;14.00;5.90;;;;;;;;;;5073940;28;20468;-64
2023/05/01 02:55:44;;;;;;;12.83;5.83;;;;;;;;;;5073668;28;20016;-65
2023/05/01 02:58:15;;;;;;;12.40;5.53;;;;;;;;;;5073909;28;20021;-67
2023/05/01 03:00:41;;;;;;;;;;;;;;;;;;5073956;28;20363;-67
2023/05/01 03:03:06;;;;;;;14.77;6.00;;;;;;;;;;5072466;28;19916;-67
2023/05/01 03:05:31;;;;;;;12.60;5.90;;;;;;;;;;5073577;28;20023;-67
2023/05/01 03:07:57;;;;;;;15.30;5.80;;;;;;;;;;5073314;28;20024;-66
2023/05/01 03:10:22;;;;;;;12.03;6.00;;;;;;;;;;5073850;28;20040;-67
2023/05/01 03:12:47;;;;;;;14.17;6.03;;;;;;;;;;5073317;28;20483;-66
2023/05/01 03:15:13;;;;;;;10.93;5.80;;;;;;;;;;5073457;28;20070;-67
2023/05/01 03:17:38;;;;;;;12.93;6.10;;;;;;;;;;5072606;28;20056;-67
2023/05/01 03:20:05;;;;;;;13.87;6.10;;;;;;;;;;5073522;28;20008;-67
2023/05/01 03:22:31;;;;;;;11.37;5.53;;;;;;;;;;5072937;28;20095;-67
2023/05/01 03:24:57;;;;;;;10.67;5.47;;;;;;;;;;5072096;28;20024;-67
2023/05/01 03:27:22;;;;;;;11.97;5.57;;;;;;;;;;5073156;28;20078;-67
2023/05/01 03:29:48;;;;;;;9.47;5.00;;;;;;;;;;5073199;28;20027;-66
2023/05/01 03:32:15;;;;;;;15.83;5.93;;;;;;;;;;5072888;28;20027;-66
2023/05/01 03:34:40;;;;;;;11.33;5.23;;;;;;;;;;5072686;28;20021;-67
2023/05/01 03:37:06;;;;;;;14.80;5.80;;;;;;;;;;5073155;28;20119;-66
2023/05/01 03:39:31;;;;;;;13.43;5.67;;;;;;;;;;5072950;28;20021;-66
2023/05/01 03:41:57;;;;;;;13.00;6.07;;;;;;;;;;5071925;28;20021;-66
2023/05/01 03:44:23;;;;;;;12.30;5.57;;;;;;;;;;5072616;28;20061;-66
2023/05/01 03:46:48;;;;;;;9.93;5.87;;;;;;;;;;5073180;28;20516;-67
2023/05/01 03:49:14;;;;;;;12.63;6.00;;;;;;;;;;5072387;28;20086;-67
2023/05/01 03:51:39;;;;;;;11.73;5.40;;;;;;;;;;5073065;28;20025;-66
2023/05/01 03:54:05;;;;;;;15.57;5.40;;;;;;;;;;5072409;28;20376;-66
2023/05/01 03:56:34;;;;;;;12.30;5.30;;;;;;;;;;5072536;28;20017;-66
2023/05/01 03:58:59;;;;;;;11.87;5.80;;;;;;;;;;5070872;28;20081;-67
2023/05/01 04:01:25;;;;;;;12.57;5.73;;;;;;;;;;5071514;28;20036;-66
2023/05/01 04:03:50;;;;;;;12.73;5.67;;;;;;;;;;5070403;28;20041;-66
2023/05/01 04:06:16;;;;;;;12.10;5.50;;;;;;;;;;5054555;28;20035;-66
2023/05/01 04:08:42;;;;;;;9.43;5.23;;;;;;;;;;5054106;28;20030;-66
2023/05/01 04:11:07;;;;;;;10.60;5.27;;;;;;;;;;5072084;28;20028;-67
2023/05/01 04:13:32;;;;;;;13.67;6.20;;;;;;;;;;5071580;28;20036;-66
2023/05/01 04:15:58;;;;;;;11.23;5.33;;;;;;;;;;5070583;28;20024;-66
2023/05/01 04:18:24;;;;;;;10.93;5.30;;;;;;;;;;5072126;28;20024;-66
2023/05/01 04:20:50;;;;;;;12.90;5.60;;;;;;;;;;5072116;28;20081;-66
2023/05/01 04:23:15;;;;;;;15.67;6.20;;;;;;;;;;5072559;28;20016;-66
2023/05/01 04:25:40;;;;;;;10.30;4.90;;;;;;;;;;5049774;28;20024;-66
2023/05/01 04:28:06;;;;;;;10.63;5.03;;;;;;;;;;5071992;28;20109;-66
2023/05/01 04:30:31;;;;;;;11.63;4.90;;;;;;;;;;5053200;28;20024;-66
2023/05/01 04:33:00;;;;;;;11.93;5.30;;;;;;;;;;5068736;28;20028;-66
2023/05/01 04:35:26;;;;;;;16.50;5.90;;;;;;;;;;5071223;28;20111;-66
2023/05/01 04:37:51;;;;;;;14.27;5.17;;;;;;;;;;5071434;28;20130;-66
2023/05/01 04:40:16;;;;;;;11.40;5.03;;;;;;;;;;5071427;28;20020;-66
2023/05/01 04:42:42;;;;;;;9.37;4.40;;;;;;;;;;5071790;28;20035;-66
2023/05/01 04:45:08;;;;;;;8.97;4.90;;;;;;;;;;5071433;28;20025;-67
2023/05/01 04:47:33;;;;;;;10.70;4.67;;;;;;;;;;5071784;28;20081;-66
2023/05/01 04:49:58;;;;;;;11.30;4.70;;;;;;;;;;5071511;28;20055;-66
2023/05/01 04:52:23;;;;;;;11.20;4.90;;;;;;;;;;5072126;28;20036;-66
2023/05/01 04:54:49;;;;;;;12.20;4.83;;;;;;;;;;5071302;28;20468;-66
2023/05/01 04:57:15;;;;;;;10.20;4.50;;;;;;;;;;5072109;28;20024;-66
2023/05/01 04:59:40;;;;;;;8.43;4.33;;;;;;;;;;5071491;28;20709;-66
2023/05/01 05:02:05;;;;;;;11.10;4.67;;;;;;;;;;5070583;28;20029;-66
2023/05/01 05:04:32;;;;;;;10.83;4.23;;;;;;;;;;5071030;28;20322;-66
2023/05/01 05:06:57;;;;;;;10.90;4.50;;;;;;;;;;5071056;28;20028;-66
2023/05/01 05:09:22;;;;;;;9.83;4.30;;;;;;;;;;5071315;28;20050;-66
2023/05/01 05:11:48;;;;;;;10.13;4.40;;;;;;;;;;5071538;28;20490;-66
2023/05/01 05:14:13;;;;;;;12.90;4.90;;;;;;;;;;5070518;28;20537;-66
2023/05/01 05:16:38;;;;;;;11.33;4.57;;;;;;;;;;5071773;28;20025;-66
2023/05/01 05:19:03;;;;;;;10.60;4.43;;;;;;;;;;5071041;28;20104;-66
2023/05/01 05:21:30;;;;;;;8.03;3.83;;;;;;;;;;5071547;28;20024;-66
2023/05/01 05:23:55;;;;;;;9.30;4.37;;;;;;;;;;5070578;28;20027;-67
2023/05/01 05:26:21;;;;;;;11.67;4.60;;;;;;;;;;5070896;28;20028;-66
2023/05/01 05:28:46;;;;;;;14.30;4.60;;;;;;;;;;5071257;28;20384;-66
2023/05/01 05:31:12;;;;;;;8.03;4.27;;;;;;;;;;5071158;28;20506;-66
2023/05/01 05:33:37;;;;;;;9.97;4.70;;;;;;;;;;5071112;28;20025;-67
2023/05/01 05:36:02;;;;;;;12.10;5.03;;;;;;;;;;5071336;28;20108;-66
2023/05/01 05:38:28;;;;;;;8.77;4.10;;;;;;;;;;5071433;28;20419;-66
2023/05/01 05:40:53;;;;;;;10.07;4.30;;;;;;;;;;5070473;28;20082;-66
2023/05/01 05:43:19;;;;;;;8.37;4.00;;;;;;;;;;5070799;28;20024;-66
2023/05/01 05:45:44;;;;;;;9.13;4.10;;;;;;;;;;5070737;28;20115;-66
2023/05/01 05:48:10;;;;;;;11.10;5.17;;;;;;;;;;5071237;28;20361;-66
2023/05/01 05:50:35;;;;;;;10.07;5.40;;;;;;;;;;5073609;28;20025;-66
2023/05/01 05:53:00;;;;;;;7.97;4.50;;;;;;;;;;5075240;28;20020;-66
2023/05/01 05:55:26;;;;;;;10.13;5.00;;;;;;;;;;5075115;28;20472;-66
2023/05/01 05:57:52;;;;;;;9.77;4.53;;;;;;;;;;5073714;28;20008;-65
2023/05/01 06:00:17;;;;;;;9.97;4.50;;;;;;;;;;5074779;28;20027;-66
2023/05/01 06:02:43;;;;;;;8.97;4.20;;;;;;;;;;5072412;28;20055;-66
2023/05/01 06:05:09;;;;;;;14.07;4.33;;;;;;;;;;5075042;28;20028;-66
2023/05/01 06:07:34;;;;;;;9.77;4.03;;;;;;;;;;5074757;28;20028;-66
2023/05/01 06:10:03;;;;;;;7.90;4.20;;;;;;;;;;5075010;28;20017;-66
2023/05/01 06:12:30;;;;;;;8.73;4.50;;;;;;;;;;5074809;28;20029;-66
2023/05/01 06:14:56;;;;;;;9.70;4.17;;;;;;;;;;5073666;28;20116;-66
2023/05/01 06:17:21;;;;;;;8.87;4.30;;;;;;;;;;5074562;28;20099;-66
2023/05/01 06:19:46;;;;;;;9.23;4.53;;;;;;;;;;5074468;28;20032;-66
2023/05/01 06:22:11;;;;;;;12.97;4.43;;;;;;;;;;5074774;28;20024;-66
2023/05/01 06:24:38;;;;;;;9.47;3.90;;;;;;;;;;5073239;28;20104;-66
2023/05/01 06:27:04;;;;;;;7.93;4.17;;;;;;;;;;5074393;28;20024;-66
2023/05/01 06:29:29;;;;;;;13.43;4.13;;;;;;;;;;5074573;28;20100;-66
2023/05/01 06:31:55;;;;;;;8.90;3.93;;;;;;;;;;5074471;28;20443;-66
2023/05/01 06:34:20;;;;;;;8.33;3.87;;;;;;;;;;5073856;28;20048;-66
2023/05/01 06:36:45;;;;;;;8.00;3.70;;;;;;;;;;5073596;28;20025;-66
2023/05/01 06:39:11;;;;;;;8.20;3.50;;;;;;;;;;5074522;28;20073;-66
2023/05/01 06:41:37;;;;;;;8.13;3.70;;;;;;;;;;5073633;28;20043;-66
2023/05/01 06:44:03;;;;;;;9.97;3.77;;;;;;;;;;5075478;28;20368;-66
2023/05/01 06:46:28;;;;;;;10.87;3.63;;;;;;;;;;5075507;28;20033;-67
2023/05/01 06:48:53;;;;;;;9.60;4.25;;;;;;;;;;5074560;28;20054;-65
2023/05/01 06:51:19;;;;;;;9.10;3.92;;;;;;;;;;5075571;28;20357;-66
2023/05/01 06:53:44;;;;;;;11.65;3.42;;;;;;;;;;5075451;28;20468;-66
2023/05/01 06:56:10;;;;;;;6.55;3.20;;;;;;;;;;5075413;28;20472;-66
2023/05/01 06:58:35;;;;;;;7.57;3.60;;;;;;;;;;5073234;28;20059;-66
2023/05/01 07:01:00;;;;;;;7.72;3.58;;;;;;;;;;5072846;28;20028;-66
2023/05/01 07:03:26;;;;;;;7.93;3.33;;;;;;;;;;5072745;28;20119;-66
2023/05/01 07:05:52;;;;;;;5.90;2.80;;;;;;;;;;5074246;28;20456;-67
2023/05/01 07:08:17;;;;;;;8.35;3.13;;;;;;;;;;5080871;28;20383;-66
2023/05/01 07:10:42;;;;;;;8.07;2.90;;;;;;;;;;5073228;28;20024;-66
2023/05/01 07:13:08;;;;;;;7.05;3.03;;;;;;;;;;5072625;28;20403;-67
2023/05/01 07:15:33;;;;;;;9.13;2.78;;;;;;;;;;5070664;28;20531;-67
2023/05/01 07:18:00;;;;;;;7.07;3.40;;;;;;;;;;5074943;28;20384;-66
2023/05/01 07:20:25;;;;;;;8.52;3.47;;;;;;;;;;5072765;28;20103;-67
2023/05/01 07:22:50;;;;;;;9.45;3.70;;;;;;;;;;5068068;28;20520;-66
2023/05/01 07:25:16;;;;;;;10.73;3.47;;;;;;;;;;5059089;28;20029;-66
2023/05/01 07:27:42;;;;;;;6.40;2.80;;;;;;;;;;5072933;28;20044;-66
2023/05/01 07:30:08;;;;;;;5.75;2.88;;;;;;;;;;5069117;28;20027;-66
2023/05/01 07:32:33;;;;;;;9.88;2.92;;;;;;;;;;5069557;28;20025;-66
2023/05/01 07:34:59;;;;;;;9.00;2.97;;;;;;;;;;5072176;28;20032;-66
2023/05/01 07:37:25;;;;;;;7.43;2.80;;;;;;;;;;5072256;28;20036;-67
2023/05/01 07:39:51;;;;;;;7.72;3.42;;;;;;;;;;5070644;28;20372;-66
2023/05/01 07:42:16;;;;;;;11.57;3.40;;;;;;;;;;5072456;28;20024;-66
2023/05/01 07:44:41;;;;;;;8.00;3.38;;;;;;;;;;5072514;28;20078;-66
2023/05/01 07:47:07;;;;;;;8.45;3.42;;;;;;;;;;5071463;28;20035;-66
2023/05/01 07:49:38;;;;;;;8.43;3.30;;;;;;;;;;5071756;28;20020;-67
2023/05/01 07:52:06;;;;;;;7.38;3.40;;;;;;;;;;5067851;28;20036;-67
2023/05/01 07:54:32;;;;;;;8.13;3.22;;;;;;;;;;5065908;28;20503;-67
2023/05/01 07:56:58;;;;;;;7.03;3.33;;;;;;;;;;5065232;28;20020;-67
2023/05/01 07:59:23;;;;;;;9.52;3.58;;;;;;;;;;5065572;28;20397;-68
2023/05/01 08:01:48;;;;;;;7.55;2.95;;;;;;;;;;5073495;28;20108;-68
2023/05/01 08:04:13;;;;;;;7.13;3.03;;;;;;;;;;5072170;28;20024;-68
2023/05/01 08:06:39;;;;;;;7.93;3.33;;;;;;;;;;5069531;28;20083;-68
2023/05/01 08:09:04;;;;;;;9.10;3.20;;;;;;;;;;5072459;28;20028;-68
2023/05/01 08:11:30;;;;;;;8.30;3.40;;;;;;;;;;5072713;28;20021;-69
2023/05/01 08:13:55;;;;;;;8.80;3.40;;;;;;;;;;5072879;28;20472;-68
2023/05/01 08:16:21;;;;;;;8.77;3.00;;;;;;;;;;5073603;28;20035;-69
2023/05/01 08:18:46;;;;;;;8.60;3.30;;;;;;;;;;5073265;28;20035;-69
2023/05/01 08:21:11;;;;;;;8.05;3.17;;;;;;;;;;5073596;28;20009;-69
2023/05/01 08:23:37;;;;;;;8.18;3.03;;;;;;;;;;5073835;28;20024;-69
2023/05/01 08:26:02;;;;;;;8.73;2.95;;;;;;;;;;5073621;28;20024;-69
2023/05/01 08:28:28;;;;;;;5.80;2.67;;;;;;;;;;5073435;28;20078;-69
2023/05/01 08:30:53;;;;;;;7.22;3.20;;;;;;;;;;5073052;28;20082;-69
2023/05/01 08:33:18;;;;;;;6.25;2.40;;;;;;;;;;5072671;28;20103;-69
2023/05/01 08:35:43;;;;;;;7.10;3.20;;;;;;;;;;5073561;28;20032;-69
2023/05/01 08:38:10;;;;;;;8.27;2.92;;;;;;;;;;5073688;28;20468;-68
2023/05/01 08:40:36;;;;;;;8.98;3.00;;;;;;;;;;5073338;28;20017;-69
2023/05/01 08:43:02;;;;;;;6.85;2.70;;;;;;;;;;5073622;28;20077;-69
2023/05/01 08:45:30;;;;;;;11.40;2.88;;;;;;;;;;5073853;28;20464;-69
2023/05/01 08:47:57;;;;;;;8.13;2.75;;;;;;;;;;5072749;28;20461;-69
2023/05/01 08:50:23;;;;;;;7.88;3.22;;;;;;;;;;5073423;28;20497;-69
2023/05/01 08:52:50;;;;;;;5.88;2.80;;;;;;;;;;5073426;28;20020;-68
2023/05/01 08:55:15;;;;;;;7.22;2.95;;;;;;;;;;5073280;28;20021;-69
2023/05/01 08:57:44;;;;;;;7.35;2.78;;;;;;;;;;5073289;28;20371;-69
2023/05/01 09:00:13;;;;;;;7.50;2.75;;;;;;;;;;5072470;28;20013;-69
2023/05/01 09:02:40;;;;;;;8.40;3.20;;;;;;;;;;5070789;28;20041;-69
2023/05/01 09:05:06;;;;;;;5.85;2.50;;;;;;;;;;5072216;28;20020;-69
2023/05/01 09:07:31;;;;;;;7.95;2.80;;;;;;;;;;5072878;28;20023;-69
2023/05/01 09:09:57;;;;;;;8.27;2.85;;;;;;;;;;5073211;28;20028;-69
2023/05/01 09:12:26;;;;;;;8.38;2.63;;;;;;;;;;5073212;28;20392;-69
2023/05/01 09:14:51;;;;;;;7.97;2.88;;;;;;;;;;5073179;28;20036;-69
2023/05/01 09:17:17;;;;;;;7.03;2.60;;;;;;;;;;5071910;28;20095;-69
2023/05/01 09:19:42;;;;;;;6.32;2.75;;;;;;;;;;5069291;28;20016;-69
2023/05/01 09:22:08;;;;;;;6.75;2.72;;;;;;;;;;5067891;28;20067;-69
2023/05/01 09:24:34;;;;;;;7.03;2.80;;;;;;;;;;5074566;28;20388;-69
2023/05/01 09:27:00;;;;;;;7.50;2.50;;;;;;;;;;5073851;28;20094;-69
2023/05/01 09:29:52;;;;;;;6.55;2.78;;;;;;;;;;5071949;28;20027;-69
2023/05/01 09:32:23;;;;;;;9.50;3.25;;;;;;;;;;5067893;28;20025;-69
2023/05/01 09:34:49;;;;;;;8.75;3.15;;;;;;;;;;5074358;28;20047;-69
2023/05/01 09:37:33;;;;;;;5.68;2.47;;;;;;;;;;5072706;28;20021;-69
2023/05/01 09:40:16;;;;;;;7.43;2.70;;;;;;;;;;5075806;28;20016;-70
2023/05/01 09:42:48;;;;;;;8.05;3.00;;;;;;;;;;5076450;28;20103;-69
2023/05/01 09:45:14;;;;;;;6.55;2.53;;;;;;;;;;5076870;28;20512;-69
2023/05/01 09:47:42;;;;;;;8.52;3.00;;;;;;;;;;5076359;28;20101;-69
2023/05/01 09:50:08;;;;;;;7.35;2.92;;;;;;;;;;5076647;28;20017;-69
2023/05/01 09:52:34;;;;;;;6.80;2.28;;;;;;;;;;5076446;28;20383;-69
2023/05/01 09:55:16;;;;;;;9.43;2.47;;;;;;;;;;5076633;28;20103;-69
2023/05/01 09:57:41;;;;;;;7.80;2.35;;;;;;;;;;5066711;28;20048;-70
2023/05/01 10:00:08;;;;;;;8.57;2.60;;;;;;;;;;5075922;28;20039;-69
2023/05/01 10:02:34;;;;;;;7.20;2.60;;;;;;;;;;5073594;28;20040;-70
2023/05/01 10:05:00;;;;;;;6.20;2.40;;;;;;;;;;5076581;28;20413;-70
2023/05/01 10:07:26;;;;;;;5.05;2.13;;;;;;;;;;5076369;28;20024;-69
2023/05/01 10:09:51;;;;;;;5.25;2.80;;;;;;;;;;5076486;28;20381;-69
2023/05/01 10:12:26;;;;;;;6.05;2.28;;;;;;;;;;5075626;28;20028;-69
2023/05/01 10:14:52;;;;;;;6.63;2.55;;;;;;;;;;5076265;28;20025;-69
2023/05/01 10:17:18;;;;;;;5.07;2.38;;;;;;;;;;5076196;28;20464;-69
2023/05/01 10:19:44;;;;;;;6.57;2.53;;;;;;;;;;5075861;28;20057;-70
2023/05/01 10:22:09;;;;;;;5.18;2.20;;;;;;;;;;5058004;28;20020;-70
2023/05/01 10:24:35;;;;;;;5.10;2.47;;;;;;;;;;5075999;28;20028;-70
2023/05/01 10:27:03;;;;;;;4.97;2.10;;;;;;;;;;5076033;28;20372;-70
2023/05/01 10:29:29;;;;;;;6.82;2.10;;;;;;;;;;5075353;28;20017;-69
2023/05/01 10:31:55;;;;;;;4.38;2.10;;;;;;;;;;5075940;28;20364;-69
2023/05/01 10:34:22;;;;;;;7.40;1.80;;;;;;;;;;5075942;28;20027;-69
2023/05/01 10:36:53;;;;;;;5.65;2.08;;;;;;;;;;5075147;28;20021;-70
2023/05/01 10:39:31;;;;;;;4.32;1.83;;;;;;;;;;5075590;28;20023;-70
2023/05/01 10:42:02;;;;;;;5.97;1.70;;;;;;;;;;5057600;28;20515;-70
2023/05/01 10:44:27;;;;;;;5.10;1.45;;;;;;;;;;5075418;28;20028;-70
2023/05/01 10:46:53;;;;;;;3.75;1.45;;;;;;;;;;5075791;28;20016;-70
2023/05/01 10:49:18;;;;;;;4.93;1.80;;;;;;;;;;5075366;28;20492;-71
2023/05/01 10:52:00;;;;;;;4.38;1.70;;;;;;;;;;5075315;28;20012;-70
2023/05/01 10:54:26;;;;;;;4.30;1.48;;;;;;;;;;5075027;28;20050;-70
2023/05/01 10:56:53;;;;;;;4.00;1.15;;;;;;;;;;5075209;28;20013;-70
2023/05/01 10:59:18;;;;;;;4.57;1.40;;;;;;;;;;5075492;28;20021;-70
2023/05/01 11:01:47;;;;;;;3.55;1.00;;;;;;;;;;5074142;28;20476;-70
2023/05/01 11:04:38;;;;;;;4.35;1.00;;;;;;;;;;5073381;28;20400;-69
2023/05/01 11:07:13;;;;;;;3.83;1.17;;;;;;;;;;5070798;28;20108;-69
2023/05/01 11:09:40;;;;;;;4.03;1.00;;;;;;;;;;5073369;28;20024;-69
2023/05/01 11:12:05;;;;;;;5.43;1.10;;;;;;;;;;5075283;28;20025;-69
2023/05/01 11:14:49;;;;;;;2.85;0.98;;;;;;;;;;5074788;28;20365;-70
2023/05/01 11:17:34;;;;;;;3.03;1.00;;;;;;;;;;5074866;28;20020;-69
2023/05/01 11:20:00;;;;;;;3.20;1.13;;;;;;;;;;5074840;28;20404;-70
2023/05/01 11:22:25;;;;;;;4.53;1.55;;;;;;;;;;5074730;28;20026;-69
2023/05/01 11:24:50;;;;;;;4.15;1.25;;;;;;;;;;5074228;28;20016;-69
2023/05/01 11:27:17;;;;;;;4.32;1.25;;;;;;;;;;5074565;28;20017;-69
2023/05/01 11:29:43;;;;;;;2.95;1.20;;;;;;;;;;5074629;28;20082;-69
2023/05/01 11:32:08;;;;;;;3.47;1.17;;;;;;;;;;5074563;28;20021;-70
2023/05/01 11:34:34;;;;;;;3.92;1.33;;;;;;;;;;5074161;28;20480;-69
2023/05/01 11:37:00;;;;;;;3.63;1.05;;;;;;;;;;5074505;28;20017;-69
2023/05/01 11:39:25;;;;;;;3.05;1.30;;;;;;;;;;5074776;28;20048;-69
2023/05/01 11:42:05;;;;;;;2.90;1.08;;;;;;;;;;5074261;28;20016;-69
2023/05/01 11:44:30;;;;;;;3.45;1.25;;;;;;;;;;5074322;28;20468;-69
2023/05/01 11:46:56;;;;;;;2.90;1.15;;;;;;;;;;5073209;28;20073;-69
2023/05/01 11:49:27;;;;;;;3.90;1.35;;;;;;;;;;5074207;28;20099;-69
2023/05/01 11:51:56;;;;;;;4.00;1.33;;;;;;;;;;5074566;28;20013;-69
2023/05/01 11:54:22;;;;;;;4.63;1.30;;;;;;;;;;5074093;28;20013;-70
2023/05/01 11:56:56;;;;;;;4.15;1.35;;;;;;;;;;5074298;28;20020;-69
2023/05/01 11:59:21;;;;;;;3.92;1.20;;;;;;;;;;5074032;28;20100;-69
2023/05/01 12:01:46;;;;;;;2.83;1.00;;;;;;;;;;5073621;28;20051;-68
2023/05/01 12:04:13;;;;;;;2.88;1.20;;;;;;;;;;5071678;28;20032;-69
2023/05/01 12:06:43;;;;;;;5.93;1.30;;;;;;;;;;5073953;28;20418;-69
2023/05/01 12:09:16;;;;;;;4.97;1.70;;;;;;;;;;5074437;28;20048;-69
2023/05/01 12:11:41;;;;;;;3.97;1.30;;;;;;;;;;5074075;28;20475;-69
2023/05/01 12:14:08;;;;;;;3.08;1.33;;;;;;;;;;5074098;28;20020;-68
2023/05/01 12:16:33;;;;;;;3.20;1.40;;;;;;;;;;5073944;28;20024;-69
2023/05/01 12:18:59;;;;;;;3.65;1.40;;;;;;;;;;5072996;28;20525;-69
2023/05/01 12:21:27;;;;;;;4.20;1.50;;;;;;;;;;5072486;28;20357;-69
2023/05/01 12:23:53;;;;;;;7.00;1.50;;;;;;;;;;5072869;28;20056;-69
2023/05/01 12:26:22;;;;;;;3.95;1.50;;;;;;;;;;5073051;28;20020;-70
2023/05/01 12:28:57;;;;;;;5.03;1.20;;;;;;;;;;5073486;28;20024;-70
2023/05/01 12:31:23;;;;;;;5.13;1.15;;;;;;;;;;5073131;28;20027;-69
2023/05/01 12:33:58;;;;;;;3.88;1.13;;;;;;;;;;5073210;28;20460;-69
2023/05/01 12:36:24;;;;;;;2.47;0.93;;;;;;;;;;5073368;28;20031;-69
2023/05/01 12:39:00;;;;;;;3.83;1.40;;;;;;;;;;5072424;28;20146;-69
2023/05/01 12:41:36;;;;;;;3.53;1.17;;;;;;;;;;5072387;28;20029;-69
2023/05/01 12:44:01;;;;;;;3.42;1.00;;;;;;;;;;5073586;28;20013;-69
2023/05/01 12:46:27;;;;;;;3.33;1.05;;;;;;;;;;5073183;28;20036;-69
2023/05/01 12:48:52;;;;;;;2.10;0.90;;;;;;;;;;5073272;28;20046;-69
2023/05/01 12:51:18;;;;;;;2.53;0.77;;;;;;;;;;5073475;28;20043;-69
2023/05/01 12:53:44;;;;;;;2.53;0.82;;;;;;;;;;5073093;28;20029;-69
2023/05/01 12:56:21;;;;;;;3.33;1.13;;;;;;;;;;5073264;28;20032;-69
2023/05/01 12:58:47;;;;;;;2.88;1.20;;;;;;;;;;5073022;28;20533;-69
2023/05/01 13:01:12;;;;;;;2.75;1.10;;;;;;;;;;5073049;28;20020;-69
2023/05/01 13:03:42;;;;;;;2.78;0.98;;;;;;;;;;5071008;28;20123;-70
2023/05/01 13:06:07;;;;;;;2.42;0.90;;;;;;;;;;5072446;28;20104;-70
2023/05/01 13:08:35;;;;;;;3.55;1.20;;;;;;;;;;5073121;28;20520;-70
2023/05/01 13:11:07;;;;;;;3.78;1.40;;;;;;;;;;5073306;28;20024;-69
2023/05/01 13:13:33;;;;;;;2.47;1.20;;;;;;;;;;5072937;28;20042;-69
2023/05/01 13:16:05;;;;;;;4.38;1.45;;;;;;;;;;5072883;28;20146;-69
2023/05/01 13:18:31;;;;;;;3.22;1.33;;;;;;;;;;5072891;28;20044;-69
2023/05/01 13:21:07;;;;;;;3.95;1.50;;;;;;;;;;5072891;28;20024;-70
2023/05/01 13:23:33;;;;;;;4.15;1.40;;;;;;;;;;5072016;28;20012;-69
2023/05/01 13:25:58;;;;;;;4.10;1.60;;;;;;;;;;5073044;28;20173;-69
2023/05/01 13:28:23;;;;;;;6.78;1.70;;;;;;;;;;5073115;28;20413;-69
2023/05/01 13:30:49;;;;;;;5.22;1.48;;;;;;;;;;5073026;28;20047;-69
2023/05/01 13:33:14;;;;;;;2.90;1.45;;;;;;;;;;5072753;28;20036;-69
2023/05/01 13:35:39;;;;;;;3.47;1.17;;;;;;;;;;5072862;28;20055;-69
2023/05/01 13:38:07;;;;;;;3.33;1.27;;;;;;;;;;5073091;28;20355;-69
2023/05/01 13:40:33;;;;;;;5.28;1.67;;;;;;;;;;5072722;28;20024;-69
2023/05/01 13:42:58;;;;;;;2.22;1.00;;;;;;;;;;5072865;28;20560;-69
2023/05/01 13:45:23;;;;;;;2.83;1.35;;;;;;;;;;5072643;28;20020;-69
2023/05/01 13:47:50;;;;;;;3.50;1.38;;;;;;;;;;5072508;28;20024;-69
2023/05/01 13:50:16;;;;;;;3.17;1.30;;;;;;;;;;5072623;28;20043;-69
2023/05/01 13:52:43;;;;;;;4.57;1.50;;;;;;;;;;5072760;28;20384;-69
2023/05/01 13:55:09;;;;;;;2.70;1.25;;;;;;;;;;5072442;28;20021;-69
2023/05/01 13:57:39;;;;;;;2.33;1.10;;;;;;;;;;5072501;28;20108;-69
2023/05/01 14:00:07;;;;;;;3.47;1.30;;;;;;;;;;5072835;28;20460;-69
2023/05/01 14:02:32;;;;;;;3.40;1.30;;;;;;;;;;5070502;28;20404;-70
2023/05/01 14:04:58;;;;;;;3.42;1.30;;;;;;;;;;5072408;28;20025;-69
2023/05/01 14:07:23;;;;;;;2.45;1.20;;;;;;;;;;5072315;28;20033;-69
2023/05/01 14:09:53;;;;;;;4.13;1.77;;;;;;;;;;5072777;28;20024;-69
2023/05/01 14:12:21;;;;;;;4.57;2.10;;;;;;;;;;5076079;28;20024;-69
2023/05/01 14:14:47;;;;;;;4.72;2.33;;;;;;;;;;5075976;28;20023;-69
2023/05/01 14:17:12;;;;;;;6.22;2.55;;;;;;;;;;5076384;28;20521;-69
2023/05/01 14:19:38;;;;;;;5.32;2.22;;;;;;;;;;5075881;28;20021;-69
2023/05/01 14:22:06;;;;;;;4.85;2.30;;;;;;;;;;5075908;28;20025;-69
2023/05/01 14:24:34;;;;;;;4.32;2.38;;;;;;;;;;5075798;28;20017;-69
2023/05/01 14:27:00;;;;;;;5.93;2.53;;;;;;;;;;5076117;28;20457;-69
2023/05/01 14:29:26;;;;;;;5.50;2.30;;;;;;;;;;5075736;28;20040;-69
2023/05/01 14:31:53;;;;;;;4.90;2.20;;;;;;;;;;5075859;28;20460;-69
2023/05/01 14:34:19;;;;;;;5.35;2.30;;;;;;;;;;5075656;28;20017;-69
2023/05/01 14:36:44;;;;;;;7.50;2.15;;;;;;;;;;5075117;28;20338;-69
2023/05/01 14:39:09;;;;;;;4.88;2.50;;;;;;;;;;5075894;28;20101;-69
2023/05/01 14:41:38;;;;;;;4.13;2.10;;;;;;;;;;5075862;28;20029;-68